Time;durP1;ratioP1;P1;durP2;ratioP2;P2;SDS_P1;SDS_P2;PMS_P1;PMS_P2;Temp;Humidity;BMP_temperature;BMP_pressure;BME280_temperature;BME280_humidity;BME280_pressure;Samples;Min_cycle;Max_cycle;Signal;HPM_P1;HPM_P2
2021/04/27 00:02:18;;;;;;;8.67;7.77;;;7.10;69.80;;;;;;5074127;28;20164;-69
2021/04/27 00:04:44;;;;;;;11.23;8.40;;;7.10;70.30;;;;;;5074110;28;20168;-69
2021/04/27 00:07:10;;;;;;;8.07;6.63;;;7.00;70.70;;;;;;5074484;28;20394;-68
2021/04/27 00:09:36;;;;;;;9.30;7.50;;;7.00;72.10;;;;;;5074015;28;20481;-69
2021/04/27 00:12:02;;;;;;;10.60;7.60;;;6.90;74.50;;;;;;5074182;28;20913;-69
2021/04/27 00:14:28;;;;;;;9.60;8.27;;;6.90;75.90;;;;;;5073073;28;20841;-68
2021/04/27 00:16:53;;;;;;;8.40;7.57;;;6.90;76.20;;;;;;5073873;28;20795;-68
2021/04/27 00:19:19;;;;;;;9.83;8.83;;;6.90;76.10;;;;;;5073644;28;20494;-68
2021/04/27 00:21:45;;;;;;;11.33;8.50;;;6.80;75.70;;;;;;5073744;28;20392;-68
2021/04/27 00:24:11;;;;;;;10.27;8.80;;;6.80;74.90;;;;;;5074401;28;20417;-69
2021/04/27 00:26:36;;;;;;;12.13;8.57;;;6.80;74.70;;;;;;5094245;28;20167;-68
2021/04/27 00:29:04;;;;;;;10.70;7.77;;;6.80;74.60;;;;;;5093944;28;20516;-68
2021/04/27 00:31:29;;;;;;;11.13;8.03;;;6.80;74.80;;;;;;5093702;28;20228;-69
2021/04/27 00:33:56;;;;;;;11.70;8.77;;;6.80;74.80;;;;;;5093849;28;20398;-69
2021/04/27 00:36:22;;;;;;;12.13;8.50;;;6.70;75.10;;;;;;5093741;28;20614;-68
2021/04/27 00:38:48;;;;;;;13.53;8.20;;;6.70;75.60;;;;;;5094023;28;20414;-69
2021/04/27 00:41:14;;;;;;;10.57;8.70;;;6.70;75.90;;;;;;5092758;28;20413;-68
2021/04/27 00:43:39;;;;;;;16.27;8.93;;;6.70;76.30;;;;;;5093638;28;20191;-68
2021/04/27 00:46:05;;;;;;;10.73;8.60;;;6.60;76.60;;;;;;5093608;28;20165;-69
2021/04/27 00:48:30;;;;;;;11.03;8.43;;;6.60;76.90;;;;;;5093583;28;20201;-68
2021/04/27 00:50:56;;;;;;;8.97;7.53;;;6.60;77.30;;;;;;5093437;28;20233;-68
2021/04/27 00:53:22;;;;;;;12.27;8.90;;;6.50;77.50;;;;;;5093679;28;20164;-69
2021/04/27 00:55:48;;;;;;;9.90;7.50;;;6.50;78.20;;;;;;5093786;28;20204;-68
2021/04/27 00:58:14;;;;;;;14.70;8.97;;;6.50;78.80;;;;;;5092517;28;20164;-68
2021/04/27 01:00:41;;;;;;;11.33;7.70;;;6.50;80.00;;;;;;5093396;28;20174;-69
2021/04/27 01:03:07;;;;;;;10.37;8.80;;;6.50;80.80;;;;;;5093305;28;20434;-68
2021/04/27 01:05:35;;;;;;;9.00;8.07;;;6.50;81.00;;;;;;5093327;28;20398;-69
2021/04/27 01:11:12;;;;;;;9.50;8.43;;;6.40;81.00;;;;;;5111582;27;20555;-69
2021/04/27 01:13:48;;;;;;;12.60;8.40;;;6.40;81.60;;;;;;5095531;28;20412;-69
2021/04/27 01:16:17;;;;;;;11.50;8.00;;;6.40;81.80;;;;;;5101116;28;20463;-69
2021/04/27 01:18:47;;;;;;;9.97;7.63;;;6.40;81.90;;;;;;5090298;28;20889;-69
2021/04/27 01:21:14;;;;;;;11.13;8.27;;;6.40;82.20;;;;;;5090222;28;20447;-69
2021/04/27 01:24:09;;;;;;;8.53;7.73;;;6.40;81.90;;;;;;5096319;28;20404;-70
2021/04/27 01:26:46;;;;;;;10.00;8.30;;;6.40;81.30;;;;;;5096699;28;20785;-69
2021/04/27 01:29:19;;;;;;;14.07;7.30;;;6.30;81.00;;;;;;5110499;28;20436;-69
2021/04/27 01:31:46;;;;;;;10.30;6.53;;;6.30;81.00;;;;;;5110474;28;20922;-69
2021/04/27 01:34:18;;;;;;;8.90;6.67;;;6.30;81.30;;;;;;5109609;28;20778;-69
2021/04/27 01:36:43;;;;;;;7.07;6.47;;;6.20;80.00;;;;;;5110396;28;20419;-69
2021/04/27 01:39:09;;;;;;;6.50;5.57;;;6.20;79.20;;;;;;5110723;28;20393;-69
2021/04/27 01:41:36;;;;;;;7.93;6.60;;;6.20;77.70;;;;;;5110251;28;20170;-69
2021/04/27 01:44:03;;;;;;;8.43;5.40;;;6.20;77.50;;;;;;5110195;28;20162;-69
2021/04/27 01:46:29;;;;;;;5.70;5.03;;;6.20;77.00;;;;;;5110107;28;20393;-69
2021/04/27 01:48:55;;;;;;;5.90;5.30;;;6.20;76.60;;;;;;5109971;28;20472;-69
2021/04/27 01:51:21;;;;;;;8.67;4.93;;;6.20;75.50;;;;;;5109270;28;20481;-70
2021/04/27 01:53:48;;;;;;;5.53;4.77;;;6.30;74.70;;;;;;5110051;28;20155;-70
2021/04/27 01:56:14;;;;;;;5.97;5.30;;;6.30;74.40;;;;;;5109940;28;20843;-69
2021/04/27 01:58:40;;;;;;;5.17;4.67;;;6.30;73.80;;;;;;5109802;28;20453;-69
2021/04/27 02:01:06;;;;;;;5.33;4.83;;;6.30;73.70;;;;;;5109927;28;20526;-69
2021/04/27 02:03:40;;;;;;;5.90;5.30;;;6.20;73.60;;;;;;5109834;28;20421;-70
2021/04/27 02:06:06;;;;;;;5.40;4.57;;;6.20;73.80;;;;;;5109469;28;20404;-70
2021/04/27 02:08:32;;;;;;;4.37;3.93;;;6.20;74.00;;;;;;5109858;28;20465;-69
2021/04/27 02:10:58;;;;;;;5.70;4.07;;;6.20;73.50;;;;;;5109677;28;20147;-69
2021/04/27 02:13:23;;;;;;;6.43;4.57;;;6.10;73.50;;;;;;5109563;28;20439;-69
2021/04/27 02:15:49;;;;;;;5.47;3.97;;;6.10;73.10;;;;;;5109804;28;20744;-69
2021/04/27 02:18:20;;;;;;;4.30;3.90;;;6.20;72.60;;;;;;5109462;28;20170;-69
2021/04/27 02:20:47;;;;;;;7.83;4.20;;;6.20;72.00;;;;;;5103256;28;20172;-69
2021/04/27 02:23:15;;;;;;;4.97;3.93;;;6.20;72.00;;;;;;5094304;28;20389;-69
2021/04/27 02:25:42;;;;;;;5.10;3.90;;;6.20;71.80;;;;;;5075581;28;20422;-70
2021/04/27 02:28:09;;;;;;;5.80;4.60;;;6.20;71.60;;;;;;5075411;28;20405;-69
2021/04/27 02:30:35;;;;;;;5.60;4.13;;;6.20;71.70;;;;;;5075310;28;20464;-69
2021/04/27 02:33:01;;;;;;;6.20;4.00;;;6.20;71.20;;;;;;5075614;28;20386;-69
2021/04/27 02:35:26;;;;;;;5.77;3.97;;;6.20;71.40;;;;;;5075742;28;20398;-70
2021/04/27 02:37:52;;;;;;;7.40;4.43;;;6.10;71.10;;;;;;5075369;28;20683;-69
2021/04/27 02:40:24;;;;;;;4.70;4.20;;;6.10;71.20;;;;;;5075810;28;20243;-69
2021/04/27 02:42:53;;;;;;;5.30;4.80;;;6.10;71.30;;;;;;5076333;28;20191;-70
2021/04/27 02:45:20;;;;;;;4.80;3.97;;;6.10;71.30;;;;;;5075241;28;20428;-69
2021/04/27 02:47:46;;;;;;;6.57;4.30;;;6.10;71.50;;;;;;5075264;28;20391;-69
2021/04/27 02:50:14;;;;;;;3.83;3.50;;;6.10;71.80;;;;;;5075067;28;20961;-69
2021/04/27 02:52:41;;;;;;;4.70;3.77;;;6.10;71.20;;;;;;5075227;28;20394;-69
2021/04/27 02:55:09;;;;;;;5.83;3.97;;;6.10;70.90;;;;;;5074901;28;20395;-70
2021/04/27 02:57:35;;;;;;;4.30;3.90;;;6.10;71.50;;;;;;5075490;28;20465;-70
2021/04/27 03:00:03;;;;;;;4.50;3.70;;;6.10;71.00;;;;;;5074793;28;20427;-69
2021/04/27 03:02:28;;;;;;;4.10;3.70;;;6.00;70.60;;;;;;5074975;28;20393;-69
2021/04/27 03:04:54;;;;;;;6.50;3.53;;;6.00;70.70;;;;;;5074626;28;20419;-69
2021/04/27 03:07:19;;;;;;;5.63;4.00;;;6.00;70.60;;;;;;5075006;28;20160;-70
2021/04/27 03:09:45;;;;;;;4.53;3.70;;;6.00;70.50;;;;;;5074590;28;20244;-69
2021/04/27 03:12:10;;;;;;;4.50;3.47;;;6.00;70.60;;;;;;5074590;28;20160;-69
2021/04/27 03:14:36;;;;;;;4.83;3.93;;;6.00;70.40;;;;;;5075035;28;20547;-69
2021/04/27 03:17:02;;;;;;;6.77;3.00;;;6.00;70.10;;;;;;5074592;28;20163;-69
2021/04/27 03:19:27;;;;;;;4.03;3.00;;;6.00;69.80;;;;;;5074568;28;20191;-69
2021/04/27 03:21:53;;;;;;;5.53;3.80;;;6.00;70.10;;;;;;5074750;28;20638;-69
2021/04/27 03:24:19;;;;;;;5.30;3.30;;;5.90;69.90;;;;;;5074372;28;20672;-69
2021/04/27 03:26:44;;;;;;;6.03;4.40;;;5.90;69.50;;;;;;5074402;28;20160;-69
2021/04/27 03:29:10;;;;;;;7.60;3.50;;;5.90;69.60;;;;;;5074340;28;20197;-69
2021/04/27 03:31:35;;;;;;;4.73;3.37;;;6.00;69.90;;;;;;5078309;28;20703;-69
2021/04/27 03:34:01;;;;;;;4.10;3.60;;;6.00;69.50;;;;;;5093961;28;20514;-69
2021/04/27 03:36:26;;;;;;;4.33;3.30;;;6.00;68.80;;;;;;5094548;28;20160;-69
2021/04/27 03:38:52;;;;;;;4.23;3.83;;;6.00;68.80;;;;;;5094542;28;20155;-69
2021/04/27 03:41:18;;;;;;;4.83;3.43;;;6.00;68.70;;;;;;5094446;28;20159;-69
2021/04/27 03:43:43;;;;;;;6.07;3.30;;;5.90;68.70;;;;;;5094297;28;20277;-69
2021/04/27 03:46:09;;;;;;;4.20;3.77;;;5.90;68.70;;;;;;5094234;28;20388;-69
2021/04/27 03:48:34;;;;;;;4.17;3.77;;;5.90;68.50;;;;;;5093571;28;20610;-69
2021/04/27 03:51:00;;;;;;;4.20;3.10;;;5.90;68.40;;;;;;5094394;28;20171;-69
2021/04/27 03:53:26;;;;;;;4.50;2.93;;;5.90;68.50;;;;;;5094054;28;20159;-69
2021/04/27 03:55:53;;;;;;;4.40;3.07;;;5.90;68.40;;;;;;5094170;28;20164;-69
2021/04/27 03:58:18;;;;;;;3.70;3.30;;;5.80;68.60;;;;;;5093976;28;20143;-69
2021/04/27 04:00:44;;;;;;;7.30;3.77;;;5.80;68.60;;;;;;5093979;28;20386;-69
2021/04/27 04:03:09;;;;;;;5.17;3.33;;;5.80;68.40;;;;;;5094361;28;20163;-70
2021/04/27 04:05:35;;;;;;;3.43;3.13;;;5.80;68.60;;;;;;5094177;28;20172;-70
2021/04/27 04:08:01;;;;;;;8.00;4.00;;;5.80;68.90;;;;;;5093914;28;20166;-69
2021/04/27 04:10:26;;;;;;;4.40;3.40;;;5.80;68.70;;;;;;5093810;28;20194;-70
2021/04/27 04:12:52;;;;;;;4.27;3.60;;;5.80;68.80;;;;;;5093864;28;20281;-69
2021/04/27 04:15:18;;;;;;;6.23;3.30;;;5.80;69.10;;;;;;5093753;28;20259;-69
2021/04/27 04:17:44;;;;;;;4.40;4.00;;;5.80;69.40;;;;;;5093725;28;20150;-69
2021/04/27 04:20:16;;;;;;;6.10;3.93;;;5.80;69.50;;;;;;5094563;28;20854;-69
2021/04/27 04:22:42;;;;;;;6.23;4.00;;;5.80;69.70;;;;;;5087969;28;20308;-69
2021/04/27 04:25:09;;;;;;;6.27;4.17;;;5.80;69.80;;;;;;5091176;28;20461;-69
2021/04/27 04:27:36;;;;;;;5.07;3.70;;;5.80;69.70;;;;;;5093821;28;20160;-69
2021/04/27 04:30:04;;;;;;;5.03;4.53;;;5.80;70.00;;;;;;5093537;28;20446;-69
2021/04/27 04:32:30;;;;;;;4.90;4.10;;;5.80;70.50;;;;;;5093709;28;20408;-69
2021/04/27 04:34:56;;;;;;;4.37;3.97;;;5.80;70.90;;;;;;5094139;28;20383;-69
2021/04/27 04:37:21;;;;;;;7.00;4.40;;;5.70;71.00;;;;;;5093348;28;20158;-69
2021/04/27 04:39:47;;;;;;;5.30;4.10;;;5.70;71.20;;;;;;5092906;28;20175;-69
2021/04/27 04:42:12;;;;;;;6.33;3.83;;;5.70;71.60;;;;;;5093496;28;20194;-69
2021/04/27 04:44:38;;;;;;;5.90;4.50;;;5.70;72.00;;;;;;5093104;28;20526;-69
2021/04/27 04:47:03;;;;;;;5.73;4.50;;;5.70;72.00;;;;;;5093554;28;20170;-69
2021/04/27 04:49:29;;;;;;;5.20;4.70;;;5.70;72.30;;;;;;5094168;28;20188;-69
2021/04/27 04:51:55;;;;;;;5.60;4.20;;;5.70;72.40;;;;;;5093296;28;20159;-69
2021/04/27 04:54:21;;;;;;;7.20;5.20;;;5.70;72.30;;;;;;5093519;28;20192;-69
2021/04/27 04:56:48;;;;;;;8.20;5.40;;;5.70;72.40;;;;;;5092447;28;20178;-69
2021/04/27 04:59:13;;;;;;;5.37;4.67;;;5.70;72.60;;;;;;5093097;28;20424;-70
2021/04/27 05:01:39;;;;;;;7.97;4.30;;;5.70;72.80;;;;;;5093410;28;20397;-69
2021/04/27 05:04:05;;;;;;;5.53;3.83;;;5.70;72.70;;;;;;5093758;28;20167;-70
2021/04/27 05:06:35;;;;;;;6.30;4.17;;;5.70;72.40;;;;;;5093162;28;20175;-70
2021/04/27 05:09:03;;;;;;;10.57;5.60;;;5.70;72.40;;;;;;5093164;28;20264;-69
2021/04/27 05:11:29;;;;;;;6.33;3.93;;;5.80;72.70;;;;;;5093264;28;20881;-69
2021/04/27 05:13:54;;;;;;;4.50;3.77;;;5.80;72.20;;;;;;5092274;28;20482;-69
2021/04/27 05:16:20;;;;;;;4.03;3.73;;;5.80;72.00;;;;;;5092866;28;20166;-70
2021/04/27 05:18:46;;;;;;;8.00;4.70;;;5.80;71.70;;;;;;5093390;28;20671;-69
2021/04/27 05:21:12;;;;;;;6.80;3.80;;;5.90;71.50;;;;;;5091425;28;20517;-69
2021/04/27 05:23:38;;;;;;;4.93;3.50;;;5.90;71.00;;;;;;5079211;28;20183;-69
2021/04/27 05:26:03;;;;;;;4.17;3.80;;;5.90;70.60;;;;;;5072768;28;20878;-70
2021/04/27 05:28:29;;;;;;;3.83;3.43;;;6.00;70.30;;;;;;5072510;28;20167;-69
2021/04/27 05:30:55;;;;;;;5.37;4.17;;;6.10;69.40;;;;;;5073819;28;20536;-70
2021/04/27 05:33:20;;;;;;;8.07;3.67;;;6.10;68.80;;;;;;5072801;28;20618;-70
2021/04/27 05:35:46;;;;;;;6.80;4.20;;;6.20;68.80;;;;;;5072394;28;20163;-70
2021/04/27 05:38:12;;;;;;;7.70;4.50;;;6.20;68.00;;;;;;5072058;28;20158;-69
2021/04/27 05:40:38;;;;;;;6.53;4.00;;;6.30;67.60;;;;;;5072053;28;20610;-70
2021/04/27 05:43:04;;;;;;;4.23;3.80;;;6.30;67.10;;;;;;5072664;28;20189;-70
2021/04/27 05:45:30;;;;;;;4.90;3.67;;;6.40;67.10;;;;;;5072982;28;20489;-69
2021/04/27 05:47:56;;;;;;;4.13;3.83;;;6.50;65.80;;;;;;5073172;28;20518;-70
2021/04/27 05:50:22;;;;;;;4.50;3.30;;;6.50;65.40;;;;;;5072644;28;20204;-69
2021/04/27 05:52:48;;;;;;;6.53;3.50;;;6.60;64.90;;;;;;5072529;28;20207;-70
2021/04/27 05:55:13;;;;;;;4.30;3.90;;;6.70;64.30;;;;;;5072704;28;20398;-69
2021/04/27 05:57:39;;;;;;;5.70;3.40;;;6.70;64.00;;;;;;5076235;28;20165;-69
2021/04/27 06:00:06;;;;;;;3.77;3.30;;;6.80;63.70;;;;;;5076735;28;20984;-70
2021/04/27 06:02:31;;;;;;;8.20;4.27;;;6.80;63.00;;;;;;5076187;28;20183;-69
2021/04/27 06:04:57;;;;;;;4.50;3.53;;;6.90;62.60;;;;;;5082261;28;20417;-69
2021/04/27 06:07:22;;;;;;;5.90;3.73;;;7.00;62.50;;;;;;5096246;28;20670;-70
2021/04/27 06:09:48;;;;;;;4.10;3.70;;;7.10;61.90;;;;;;5096077;28;20258;-70
2021/04/27 06:12:14;;;;;;;4.50;3.20;;;7.10;61.70;;;;;;5096363;28;20155;-70
2021/04/27 06:14:39;;;;;;;7.33;3.47;;;7.20;61.40;;;;;;5096974;28;20247;-70
2021/04/27 06:17:05;;;;;;;4.67;2.93;;;7.30;61.00;;;;;;5096486;28;20582;-69
2021/04/27 06:19:30;;;;;;;7.97;3.70;;;7.40;60.50;;;;;;5096123;28;20168;-70
2021/04/27 06:21:56;;;;;;;5.90;3.50;;;7.40;60.10;;;;;;5095195;28;20172;-69
2021/04/27 06:24:22;;;;;;;5.53;3.77;;;7.50;59.80;;;;;;5075950;28;20596;-69
2021/04/27 06:26:48;;;;;;;4.40;3.20;;;7.50;59.40;;;;;;5075952;28;20172;-70
2021/04/27 06:29:13;;;;;;;4.30;3.50;;;7.70;58.50;;;;;;5076171;28;20188;-70
2021/04/27 06:31:39;;;;;;;6.13;3.10;;;7.80;57.40;;;;;;5075844;28;20521;-69
2021/04/27 06:34:05;;;;;;;4.70;3.70;;;7.90;56.80;;;;;;5075485;28;20675;-70
2021/04/27 06:36:32;;;;;;;4.83;4.00;;;8.00;57.00;;;;;;5076067;28;20165;-69
2021/04/27 06:38:59;;;;;;;5.10;3.03;;;8.10;56.10;;;;;;5076293;28;20446;-70
2021/04/27 06:41:25;;;;;;;4.53;3.03;;;8.20;56.00;;;;;;5075410;28;20392;-70
2021/04/27 06:43:50;;;;;;;6.40;2.83;;;8.20;55.80;;;;;;5075383;28;20404;-70
2021/04/27 06:46:17;;;;;;;4.30;2.77;;;8.30;54.30;;;;;;5075975;28;20151;-70
2021/04/27 06:48:42;;;;;;;5.53;2.97;;;8.40;54.60;;;;;;5075374;28;20296;-70
2021/04/27 06:51:08;;;;;;;4.83;3.30;;;8.50;53.50;;;;;;5075449;28;20396;-70
2021/04/27 06:53:35;;;;;;;4.67;3.20;;;8.60;53.40;;;;;;5075016;28;20171;-69
2021/04/27 06:56:02;;;;;;;2.90;2.60;;;8.70;53.20;;;;;;5075861;28;20415;-70
2021/04/27 06:58:28;;;;;;;5.57;2.60;;;8.80;53.50;;;;;;5075672;28;20431;-70
2021/04/27 07:00:55;;;;;;;2.93;2.47;;;8.90;53.10;;;;;;5075368;28;20393;-69
2021/04/27 07:03:21;;;;;;;4.00;2.83;;;9.10;51.90;;;;;;5074987;28;20385;-70
2021/04/27 07:05:46;;;;;;;4.67;3.00;;;9.20;51.00;;;;;;5074976;28;20385;-70
2021/04/27 07:08:12;;;;;;;4.60;2.23;;;9.30;51.00;;;;;;5074836;28;20159;-70
2021/04/27 07:10:38;;;;;;;5.03;3.90;;;9.40;50.90;;;;;;5074792;28;20194;-70
2021/04/27 07:13:04;;;;;;;4.20;2.40;;;9.50;50.90;;;;;;5076526;28;20178;-70
2021/04/27 07:15:29;;;;;;;4.30;2.40;;;9.60;50.20;;;;;;5075084;28;20389;-70
2021/04/27 07:17:55;;;;;;;2.63;2.37;;;9.80;48.90;;;;;;5074992;28;20166;-70
2021/04/27 07:20:21;;;;;;;3.00;2.70;;;9.80;48.30;;;;;;5074765;28;20159;-70
2021/04/27 07:22:47;;;;;;;4.47;3.00;;;9.90;47.80;;;;;;5074716;28;20179;-70
2021/04/27 07:25:14;;;;;;;4.97;2.47;;;10.00;46.80;;;;;;5074526;28;20411;-70
2021/04/27 07:27:40;;;;;;;2.53;2.33;;;10.20;46.60;;;;;;5075319;28;20179;-70
2021/04/27 07:30:08;;;;;;;3.40;2.50;;;10.30;46.30;;;;;;5081880;28;20456;-70
2021/04/27 07:32:33;;;;;;;3.37;2.23;;;10.50;46.20;;;;;;5094606;28;20386;-70
2021/04/27 07:34:59;;;;;;;2.60;1.90;;;10.60;45.40;;;;;;5094397;28;20416;-69
2021/04/27 07:37:25;;;;;;;4.10;2.40;;;10.80;45.00;;;;;;5094172;28;20148;-70
2021/04/27 07:39:50;;;;;;;6.50;2.43;;;11.00;44.60;;;;;;5090306;28;20275;-69
2021/04/27 07:42:17;;;;;;;4.53;2.20;;;11.50;44.50;;;;;;5085485;28;20186;-70
2021/04/27 07:44:43;;;;;;;4.37;2.40;;;12.60;43.20;;;;;;5095379;28;20523;-70
2021/04/27 07:47:09;;;;;;;2.60;2.20;;;14.00;40.10;;;;;;5093540;28;20428;-70
2021/04/27 07:49:35;;;;;;;4.33;1.93;;;15.30;37.90;;;;;;5094269;28;20477;-70
2021/04/27 07:52:00;;;;;;;5.17;2.63;;;16.50;36.00;;;;;;5094073;28;20244;-70
2021/04/27 07:54:26;;;;;;;2.40;2.07;;;17.60;33.90;;;;;;5094198;28;20619;-70
2021/04/27 07:56:52;;;;;;;2.90;2.20;;;18.60;32.30;;;;;;5095404;28;20166;-67
2021/04/27 07:59:19;;;;;;;6.60;1.83;;;19.40;30.50;;;;;;5094729;28;20198;-67
2021/04/27 08:01:44;;;;;;;2.67;2.10;;;20.20;29.70;;;;;;5094010;28;20158;-67
2021/04/27 08:04:10;;;;;;;2.07;1.77;;;20.60;29.10;;;;;;5084322;28;20413;-67
2021/04/27 08:06:36;;;;;;;4.37;2.70;;;21.10;29.00;;;;;;5073787;28;20164;-67
2021/04/27 08:09:03;;;;;;;1.70;1.60;;;21.60;27.90;;;;;;5073670;28;20213;-67
2021/04/27 08:11:30;;;;;;;3.17;2.30;;;21.70;27.50;;;;;;5074605;28;20397;-67
2021/04/27 08:13:56;;;;;;;4.33;2.10;;;21.60;26.90;;;;;;5074079;28;20802;-67
2021/04/27 08:16:21;;;;;;;4.50;2.43;;;21.40;26.90;;;;;;5073466;28;20397;-67
2021/04/27 08:18:47;;;;;;;3.10;2.10;;;21.70;27.10;;;;;;5073010;28;20631;-67
2021/04/27 08:21:13;;;;;;;3.73;2.23;;;21.50;26.90;;;;;;5074162;28;20518;-67
2021/04/27 08:23:40;;;;;;;5.40;2.50;;;22.10;26.80;;;;;;5074795;28;20714;-67
2021/04/27 08:26:08;;;;;;;4.43;2.27;;;22.70;26.20;;;;;;5074566;28;20386;-68
2021/04/27 08:28:34;;;;;;;3.47;2.30;;;23.90;25.30;;;;;;5073305;28;20425;-67
2021/04/27 08:30:59;;;;;;;4.53;2.17;;;24.90;24.60;;;;;;5073565;28;20478;-67
2021/04/27 08:33:26;;;;;;;5.27;2.97;;;25.70;24.00;;;;;;5073322;28;20159;-68
2021/04/27 08:35:52;;;;;;;5.60;2.10;;;25.60;23.40;;;;;;5073370;28;20540;-68
2021/04/27 08:38:18;;;;;;;2.23;2.03;;;24.10;24.30;;;;;;5084448;28;20440;-68
2021/04/27 08:40:45;;;;;;;2.10;1.90;;;22.80;25.60;;;;;;5094274;28;20480;-68
2021/04/27 08:43:10;;;;;;;4.70;2.20;;;21.10;26.10;;;;;;5093431;28;20450;-67
2021/04/27 08:45:36;;;;;;;4.33;2.13;;;19.80;27.20;;;;;;5093411;28;20389;-67
2021/04/27 08:48:02;;;;;;;3.47;3.17;;;18.80;28.40;;;;;;5093377;28;20158;-67
2021/04/27 08:50:28;;;;;;;4.23;2.10;;;17.70;29.20;;;;;;5093379;28;20186;-69
2021/04/27 08:52:54;;;;;;;6.33;2.87;;;17.00;30.30;;;;;;5093749;28;20425;-69
2021/04/27 08:55:20;;;;;;;3.73;2.03;;;16.60;31.30;;;;;;5092378;28;20173;-69
2021/04/27 08:57:45;;;;;;;3.77;3.07;;;16.50;31.50;;;;;;5073502;28;20833;-69
2021/04/27 09:00:15;;;;;;;3.77;2.47;;;16.40;31.70;;;;;;5073069;28;20456;-70
2021/04/27 09:02:45;;;;;;;3.40;2.17;;;16.40;32.10;;;;;;5072936;28;20246;-70
2021/04/27 09:05:20;;;;;;;3.07;2.20;;;16.40;31.40;;;;;;5074184;28;20412;-69
2021/04/27 09:07:47;;;;;;;13.43;2.57;;;16.60;30.70;;;;;;5073056;28;20394;-69
2021/04/27 09:10:16;;;;;;;3.37;2.20;;;17.40;30.10;;;;;;5072874;28;20465;-70
2021/04/27 09:13:01;;;;;;;5.53;3.27;;;18.10;30.00;;;;;;5086390;28;20415;-70
2021/04/27 09:15:35;;;;;;;5.63;4.70;;;19.00;28.90;;;;;;5092957;28;20530;-67
2021/04/27 09:18:21;;;;;;;4.23;2.10;;;19.40;28.80;;;;;;5092712;28;20416;-70
2021/04/27 09:20:51;;;;;;;3.53;2.30;;;20.10;28.20;;;;;;5093900;28;20757;-67
2021/04/27 09:23:17;;;;;;;2.30;2.10;;;20.40;27.40;;;;;;5083083;28;20416;-68
2021/04/27 09:26:04;;;;;;;4.40;2.40;;;20.70;27.50;;;;;;5072867;28;20899;-68
2021/04/27 09:28:33;;;;;;;3.10;2.07;;;20.70;27.00;;;;;;5073190;28;20313;-68
2021/04/27 09:30:58;;;;;;;2.93;2.03;;;20.70;27.40;;;;;;5074154;28;20408;-68
2021/04/27 09:33:26;;;;;;;3.27;2.17;;;20.50;28.10;;;;;;5077869;28;20406;-67
2021/04/27 09:35:52;;;;;;;4.63;2.37;;;20.20;28.10;;;;;;5077114;28;20521;-67
2021/04/27 09:43:38;;;;;;;3.67;2.23;;;20.00;27.30;;;;;;5110805;27;20879;-69
2021/04/27 09:46:06;;;;;;;2.63;2.37;;;19.70;28.20;;;;;;5102261;28;20444;-69
2021/04/27 09:53:55;;;;;;;2.53;2.30;;;19.60;28.30;;;;;;5131368;27;21085;-68
2021/04/27 09:56:40;;;;;;;4.20;2.53;;;19.50;28.40;;;;;;5130800;28;20391;-68
2021/04/27 10:01:48;;;;;;;3.90;2.80;;;19.50;28.20;;;;;;5110767;27;20502;-69
2021/04/27 10:04:14;;;;;;;2.77;2.50;;;19.20;28.50;;;;;;5092688;28;20451;-69
2021/04/27 10:06:42;;;;;;;4.33;3.10;;;18.90;29.40;;;;;;5091768;28;20757;-69
2021/04/27 10:09:08;;;;;;;3.43;2.60;;;18.90;29.40;;;;;;5090771;28;20863;-69
2021/04/27 10:11:35;;;;;;;3.10;2.77;;;18.70;28.50;;;;;;5090371;28;20447;-69
2021/04/27 10:14:03;;;;;;;6.40;2.83;;;18.60;29.00;;;;;;5090157;28;20384;-69
2021/04/27 10:16:28;;;;;;;3.00;2.40;;;18.20;28.30;;;;;;5090445;28;20431;-69
2021/04/27 10:18:54;;;;;;;4.10;2.77;;;18.00;28.60;;;;;;5090358;28;20390;-69
2021/04/27 10:21:22;;;;;;;3.17;2.77;;;17.80;28.80;;;;;;5091624;28;20573;-69
2021/04/27 10:23:52;;;;;;;2.60;2.27;;;17.50;28.70;;;;;;5105323;28;20491;-69
2021/04/27 10:26:23;;;;;;;3.00;2.57;;;17.20;29.50;;;;;;5109944;28;20453;-69
2021/04/27 10:29:07;;;;;;;8.03;2.90;;;16.80;30.80;;;;;;5110510;28;20397;-68
2021/04/27 10:31:36;;;;;;;2.97;2.77;;;16.60;30.60;;;;;;5110516;28;20396;-68
2021/04/27 10:34:07;;;;;;;3.93;2.77;;;16.50;31.30;;;;;;5110839;28;20380;-69
2021/04/27 10:36:36;;;;;;;4.47;2.80;;;16.50;31.10;;;;;;5109598;28;20412;-69
2021/04/27 10:39:05;;;;;;;3.83;3.03;;;16.30;30.60;;;;;;5105877;28;20511;-69
2021/04/27 10:41:53;;;;;;;4.90;2.63;;;16.10;31.30;;;;;;5100829;28;20462;-68
2021/04/27 10:44:20;;;;;;;3.60;2.80;;;16.00;30.70;;;;;;5103220;28;20408;-68
2021/04/27 10:47:08;;;;;;;4.93;3.13;;;15.90;30.70;;;;;;5092622;28;20446;-68
2021/04/27 10:49:36;;;;;;;2.60;2.30;;;15.80;31.30;;;;;;5095994;28;20479;-69
2021/04/27 10:52:03;;;;;;;3.10;2.50;;;15.60;31.30;;;;;;5110000;28;20387;-68
2021/04/27 10:54:33;;;;;;;4.30;3.00;;;15.40;31.20;;;;;;5109093;28;20414;-68
2021/04/27 10:59:53;;;;;;;3.00;2.73;;;15.30;31.00;;;;;;5089684;27;20544;-69
2021/04/27 11:05:01;;;;;;;5.27;3.67;;;15.10;31.90;;;;;;5111484;27;20509;-68
2021/04/27 11:12:41;;;;;;;2.97;2.40;;;15.00;33.20;;;;;;5124070;27;20569;-69
2021/04/27 11:37:38;;;;;;;5.70;4.70;;;14.60;33.00;;;;;;5026990;27;20597;-67
2021/04/27 11:40:32;;;;;;;4.77;2.80;;;14.60;33.10;;;;;;5027294;28;20558;-67
2021/04/27 11:43:05;;;;;;;6.63;3.03;;;14.50;32.60;;;;;;5025793;28;20411;-67
2021/04/27 11:45:35;;;;;;;3.50;2.93;;;14.40;33.10;;;;;;5014962;28;20475;-67
2021/04/27 11:48:01;;;;;;;5.57;3.43;;;14.40;32.60;;;;;;5007859;28;20389;-67
2021/04/27 11:50:30;;;;;;;9.30;3.43;;;14.40;32.60;;;;;;5007386;28;20397;-67
2021/04/27 11:55:54;;;;;;;4.27;2.43;;;14.30;32.90;;;;;;5110975;27;20501;-69
2021/04/27 11:58:26;;;;;;;4.03;3.10;;;14.40;32.20;;;;;;5109953;28;20388;-69
2021/04/27 12:08:51;;;;;;;6.10;3.13;;;14.60;31.90;;;;;;5110953;27;20865;-69
2021/04/27 12:16:35;;;;;;;6.97;3.90;;;14.50;33.40;;;;;;5091019;28;20499;-69
2021/04/27 12:29:52;;;;;;;7.13;2.90;;;14.50;33.90;;;;;;5111309;27;20559;-69
2021/04/27 12:32:25;;;;;;;2.90;2.60;;;14.40;32.40;;;;;;5110991;28;20735;-68
2021/04/27 12:40:37;;;;;;;4.63;3.43;;;14.40;32.10;;;;;;5110968;27;20572;-68
2021/04/27 12:43:07;;;;;;;4.70;2.80;;;14.40;31.90;;;;;;5110905;28;20399;-68
2021/04/27 12:45:56;;;;;;;3.83;3.37;;;14.40;31.80;;;;;;5111417;28;20406;-69
2021/04/27 12:48:22;;;;;;;6.03;3.17;;;14.40;32.10;;;;;;5109796;28;20392;-68
2021/04/27 12:53:35;;;;;;;3.00;2.70;;;14.40;32.10;;;;;;5119767;27;20513;-68
2021/04/27 12:56:08;;;;;;;3.43;3.13;;;14.40;31.50;;;;;;5110813;28;20453;-68
2021/04/27 12:58:34;;;;;;;3.50;2.53;;;14.40;32.10;;;;;;5111029;28;20451;-68
2021/04/27 13:01:02;;;;;;;2.80;2.50;;;14.40;32.00;;;;;;5110671;28;20728;-68
2021/04/27 13:03:30;;;;;;;4.37;3.27;;;14.30;32.10;;;;;;5110741;28;20182;-68
2021/04/27 13:05:56;;;;;;;2.90;2.60;;;14.30;31.20;;;;;;5110885;28;20428;-68
2021/04/27 13:08:24;;;;;;;4.07;2.50;;;14.30;30.70;;;;;;5110613;28;20462;-68
2021/04/27 13:10:50;;;;;;;5.80;2.73;;;14.20;31.10;;;;;;5110403;28;20411;-68
2021/04/27 13:13:19;;;;;;;3.40;3.10;;;14.20;33.10;;;;;;5110797;28;20447;-68
2021/04/27 13:15:59;;;;;;;3.03;2.80;;;14.20;32.20;;;;;;5110521;28;20481;-68
2021/04/27 13:18:25;;;;;;;4.60;2.90;;;14.20;32.00;;;;;;5110508;28;20442;-68
2021/04/27 13:20:53;;;;;;;4.30;3.60;;;14.20;31.30;;;;;;5110290;28;20396;-68
2021/04/27 13:23:26;;;;;;;3.50;3.20;;;14.20;31.10;;;;;;5110260;28;20405;-68
2021/04/27 13:26:02;;;;;;;3.40;3.10;;;14.20;31.20;;;;;;5110195;28;20396;-68
2021/04/27 13:28:31;;;;;;;4.80;2.80;;;14.20;31.10;;;;;;5110497;28;20407;-68
2021/04/27 13:30:56;;;;;;;2.97;2.77;;;14.10;30.50;;;;;;5110189;28;20396;-68
2021/04/27 13:33:42;;;;;;;4.03;2.80;;;14.10;31.40;;;;;;5110440;28;20453;-68
2021/04/27 13:36:10;;;;;;;3.10;2.77;;;14.00;31.40;;;;;;5110126;28;20157;-68
2021/04/27 13:38:39;;;;;;;3.30;2.93;;;13.90;32.30;;;;;;5109935;28;20467;-68
2021/04/27 13:41:09;;;;;;;3.93;3.20;;;13.90;32.80;;;;;;5109929;28;20396;-68
2021/04/27 13:43:40;;;;;;;5.27;3.57;;;13.80;33.40;;;;;;5092698;28;20446;-67
2021/04/27 13:46:07;;;;;;;4.60;3.77;;;13.80;33.10;;;;;;5109657;28;20394;-67
2021/04/27 13:48:35;;;;;;;7.10;6.50;;;13.80;32.50;;;;;;5109718;28;20388;-68
2021/04/27 13:51:04;;;;;;;3.70;3.40;;;14.00;32.70;;;;;;5109595;28;20807;-68
2021/04/27 13:53:32;;;;;;;5.93;2.57;;;14.00;32.60;;;;;;5109752;28;20884;-68
2021/04/27 13:56:01;;;;;;;4.80;2.97;;;14.10;32.50;;;;;;5110023;28;20458;-68
2021/04/27 13:58:27;;;;;;;3.57;3.27;;;14.10;32.40;;;;;;5110264;28;20439;-68
2021/04/27 14:00:53;;;;;;;4.10;2.87;;;14.20;32.50;;;;;;5109595;28;20420;-68
2021/04/27 14:03:19;;;;;;;2.33;2.13;;;14.10;33.40;;;;;;5104143;28;20820;-68
2021/04/27 14:05:45;;;;;;;3.67;3.10;;;14.10;32.50;;;;;;5095923;28;20381;-68
2021/04/27 14:08:11;;;;;;;4.43;3.13;;;14.10;32.60;;;;;;5096077;28;20411;-68
2021/04/27 14:10:39;;;;;;;6.23;3.90;;;14.20;32.40;;;;;;5096314;28;20174;-68
2021/04/27 14:13:04;;;;;;;2.90;2.70;;;14.30;33.30;;;;;;5096043;28;20845;-67
2021/04/27 14:15:33;;;;;;;3.80;3.00;;;14.20;32.90;;;;;;5095776;28;20396;-68
2021/04/27 14:18:00;;;;;;;4.50;3.50;;;14.10;33.80;;;;;;5095605;28;20198;-67
2021/04/27 14:20:30;;;;;;;3.87;3.47;;;14.10;33.90;;;;;;5095746;28;20389;-67